Time;durP1;ratioP1;P1;durP2;ratioP2;P2;SDS_P1;SDS_P2;PMS_P1;PMS_P2;Temp;Humidity;BMP_temperature;BMP_pressure;BME280_temperature;BME280_humidity;BME280_pressure;Samples;Min_cycle;Max_cycle;Signal;HPM_P1;HPM_P2
2023/09/28 00:01:35;;;;;;;7.07;4.65;;;16.50;99.90;;;;;;5018179;28;20033;-55
2023/09/28 00:04:02;;;;;;;4.50;4.10;;;16.50;99.90;;;;;;5021134;28;20026;-53
2023/09/28 00:06:30;;;;;;;5.25;4.05;;;16.50;99.90;;;;;;5016261;28;20083;-54
2023/09/28 00:08:55;;;;;;;4.55;4.15;;;16.50;99.90;;;;;;5020887;28;20040;-55
2023/09/28 00:11:21;;;;;;;5.78;4.10;;;16.40;99.90;;;;;;5018235;28;20033;-55
2023/09/28 00:13:46;;;;;;;5.38;4.88;;;16.40;99.90;;;;;;5023997;28;20542;-54
2023/09/28 00:16:12;;;;;;;5.00;4.50;;;16.40;99.90;;;;;;5020450;28;20125;-55
2023/09/28 00:18:37;;;;;;;7.38;4.53;;;16.40;99.90;;;;;;5019981;28;20397;-52
2023/09/28 00:21:03;;;;;;;4.25;3.95;;;16.40;99.90;;;;;;5017146;28;20477;-56
2023/09/28 00:23:29;;;;;;;5.25;4.75;;;16.30;99.90;;;;;;5015494;28;20029;-54
2023/09/28 00:25:55;;;;;;;4.70;4.30;;;16.30;99.90;;;;;;5017642;28;20488;-52
2023/09/28 00:28:21;;;;;;;5.25;4.22;;;16.40;99.90;;;;;;5017569;28;20026;-58
2023/09/28 00:30:48;;;;;;;4.80;4.40;;;16.30;99.90;;;;;;5015584;28;20033;-58
2023/09/28 00:33:17;;;;;;;6.43;5.13;;;16.30;99.90;;;;;;5014886;28;20398;-56
2023/09/28 00:35:43;;;;;;;4.60;4.20;;;16.30;99.90;;;;;;5001416;28;20918;-54
2023/09/28 00:38:09;;;;;;;5.30;4.53;;;16.20;99.90;;;;;;5005413;28;20030;-51
2023/09/28 00:40:38;;;;;;;5.38;4.88;;;16.10;99.90;;;;;;5005721;28;20018;-53
2023/09/28 00:43:05;;;;;;;5.68;4.47;;;16.20;99.90;;;;;;5001747;28;20030;-54
2023/09/28 00:45:32;;;;;;;4.82;4.32;;;16.10;99.90;;;;;;5006493;28;20037;-52
2023/09/28 00:48:02;;;;;;;6.32;4.55;;;16.10;99.90;;;;;;5005821;28;20042;-56
2023/09/28 00:50:31;;;;;;;6.35;4.22;;;16.10;99.90;;;;;;5004822;28;20033;-52
2023/09/28 00:53:02;;;;;;;4.90;4.47;;;16.10;99.90;;;;;;5005930;28;20470;-54
2023/09/28 00:55:30;;;;;;;5.88;5.38;;;16.00;99.90;;;;;;5005376;28;20572;-57
2023/09/28 00:58:03;;;;;;;4.90;4.38;;;16.00;99.90;;;;;;5005074;28;20033;-57
2023/09/28 01:00:31;;;;;;;5.80;4.30;;;16.00;99.90;;;;;;5003637;28;20036;-57
2023/09/28 01:02:59;;;;;;;5.07;4.28;;;16.00;99.90;;;;;;5006308;28;20288;-57
2023/09/28 01:05:26;;;;;;;5.20;4.75;;;16.00;99.90;;;;;;5008195;28;20482;-55
2023/09/28 01:07:53;;;;;;;5.75;4.88;;;15.90;99.90;;;;;;5009394;28;20478;-54
2023/09/28 01:10:23;;;;;;;5.93;4.72;;;15.90;99.90;;;;;;5009517;28;20022;-55
2023/09/28 01:12:48;;;;;;;5.60;5.18;;;15.90;99.90;;;;;;5008976;28;20020;-57
2023/09/28 01:15:14;;;;;;;5.10;4.70;;;15.90;99.90;;;;;;5010989;28;20021;-56
2023/09/28 01:17:40;;;;;;;5.40;4.90;;;15.90;99.90;;;;;;5009235;28;20041;-58
2023/09/28 01:20:18;;;;;;;5.55;5.05;;;15.90;99.90;;;;;;5010644;28;20087;-59
2023/09/28 01:22:50;;;;;;;5.57;4.88;;;15.90;99.90;;;;;;5008981;28;20049;-56
2023/09/28 01:25:21;;;;;;;6.13;5.25;;;15.90;99.90;;;;;;5009389;28;20030;-57
2023/09/28 01:27:47;;;;;;;5.50;5.00;;;15.90;99.90;;;;;;5005221;28;20033;-53
2023/09/28 01:30:16;;;;;;;6.45;4.90;;;15.90;99.90;;;;;;5004964;28;20033;-53
2023/09/28 01:32:44;;;;;;;5.72;5.10;;;15.90;99.90;;;;;;5009880;28;20029;-53
2023/09/28 01:35:13;;;;;;;8.07;5.72;;;15.90;99.90;;;;;;5011329;28;20025;-54
2023/09/28 01:37:49;;;;;;;6.47;5.88;;;15.90;99.90;;;;;;5007660;28;20505;-57
2023/09/28 01:40:16;;;;;;;6.40;5.40;;;15.90;99.90;;;;;;5010047;28;20033;-54
2023/09/28 01:42:42;;;;;;;6.07;4.95;;;15.90;99.90;;;;;;5007379;28;20018;-57
2023/09/28 01:45:08;;;;;;;5.57;5.07;;;15.90;99.90;;;;;;5008149;28;20030;-52
2023/09/28 01:47:34;;;;;;;6.43;5.63;;;15.90;99.90;;;;;;5008660;28;20040;-54
2023/09/28 01:50:00;;;;;;;9.40;6.05;;;15.90;99.90;;;;;;5011217;28;20029;-58
2023/09/28 01:52:26;;;;;;;5.88;5.28;;;15.80;99.90;;;;;;5007491;28;20062;-57
2023/09/28 01:54:52;;;;;;;6.75;5.80;;;15.80;99.90;;;;;;5007298;28;20057;-55
2023/09/28 01:57:17;;;;;;;6.40;5.65;;;15.90;99.90;;;;;;5006951;28;20116;-55
2023/09/28 01:59:43;;;;;;;6.40;5.80;;;15.80;99.90;;;;;;5006052;28;20474;-56
2023/09/28 02:02:08;;;;;;;8.15;5.60;;;15.80;99.90;;;;;;5007349;28;20038;-57
2023/09/28 02:04:37;;;;;;;7.75;5.57;;;15.80;99.90;;;;;;5008780;28;20042;-54
2023/09/28 02:07:04;;;;;;;7.10;6.28;;;15.80;99.90;;;;;;5009438;28;20040;-58
2023/09/28 02:09:33;;;;;;;7.10;6.00;;;15.80;99.90;;;;;;5009877;28;20037;-55
2023/09/28 02:12:01;;;;;;;6.72;6.00;;;15.80;99.90;;;;;;5011237;28;20029;-53
2023/09/28 02:14:26;;;;;;;6.72;6.10;;;15.80;99.90;;;;;;5014162;28;20747;-52
2023/09/28 02:16:53;;;;;;;5.80;5.30;;;15.80;99.90;;;;;;5013858;28;20187;-52
2023/09/28 02:19:19;;;;;;;6.70;5.97;;;15.70;99.90;;;;;;5015371;28;20030;-56
2023/09/28 02:21:47;;;;;;;6.00;5.45;;;15.70;99.90;;;;;;5014801;28;20029;-54
2023/09/28 02:24:12;;;;;;;6.75;6.15;;;15.70;99.90;;;;;;5013313;28;20500;-54
2023/09/28 02:26:38;;;;;;;6.38;5.78;;;15.70;99.90;;;;;;5012712;28;20203;-53
2023/09/28 02:29:04;;;;;;;6.40;5.80;;;15.70;99.90;;;;;;5011122;28;20113;-54
2023/09/28 02:31:31;;;;;;;6.85;5.72;;;15.60;99.90;;;;;;5012158;28;20452;-57
2023/09/28 02:33:57;;;;;;;5.97;5.47;;;15.60;99.90;;;;;;5013250;28;20021;-58
2023/09/28 02:36:22;;;;;;;6.93;6.22;;;15.60;99.90;;;;;;5013004;28;20585;-56
2023/09/28 02:38:48;;;;;;;6.93;6.22;;;15.60;99.90;;;;;;5014158;28;20115;-54
2023/09/28 02:41:17;;;;;;;6.75;5.90;;;15.60;99.90;;;;;;5015073;28;20025;-55
2023/09/28 02:43:44;;;;;;;6.80;6.15;;;15.60;99.90;;;;;;5017763;28;20045;-56
2023/09/28 02:46:10;;;;;;;7.78;6.50;;;15.60;99.90;;;;;;5017003;28;20031;-51
2023/09/28 02:48:36;;;;;;;7.63;6.93;;;15.60;99.90;;;;;;5012003;28;20529;-52
2023/09/28 02:51:04;;;;;;;8.73;6.68;;;15.60;99.90;;;;;;5017342;28;20091;-53
2023/09/28 02:53:30;;;;;;;9.88;7.60;;;15.60;99.90;;;;;;5012552;28;20506;-55
2023/09/28 02:55:56;;;;;;;9.50;7.35;;;15.60;99.90;;;;;;5015126;28;20522;-55
2023/09/28 02:58:24;;;;;;;8.45;7.55;;;15.60;99.90;;;;;;5010396;28;20021;-54
2023/09/28 03:00:53;;;;;;;9.07;7.60;;;15.60;99.90;;;;;;5010330;28;20030;-54
2023/09/28 03:03:19;;;;;;;8.52;7.68;;;15.60;99.90;;;;;;5013595;28;20029;-53
2023/09/28 03:05:44;;;;;;;8.70;7.10;;;15.60;99.90;;;;;;5009813;28;20026;-56
2023/09/28 03:08:14;;;;;;;8.65;6.88;;;15.50;99.90;;;;;;5014700;28;20030;-52
2023/09/28 03:10:40;;;;;;;8.57;7.75;;;15.50;99.90;;;;;;5009182;28;20018;-53
2023/09/28 03:13:06;;;;;;;7.80;7.03;;;15.50;99.90;;;;;;5013527;28;20026;-55
2023/09/28 03:15:32;;;;;;;8.70;7.90;;;15.50;99.90;;;;;;5014733;28;20025;-55
2023/09/28 03:17:58;;;;;;;11.48;7.65;;;15.50;99.90;;;;;;5013465;28;20041;-53
2023/09/28 03:20:25;;;;;;;8.15;7.10;;;15.50;99.90;;;;;;5015379;28;20029;-52
2023/09/28 03:22:50;;;;;;;7.57;6.85;;;15.50;99.90;;;;;;5012914;28;20022;-51
2023/09/28 03:25:18;;;;;;;10.40;7.60;;;15.50;99.90;;;;;;5017525;28;20115;-57
2023/09/28 03:27:45;;;;;;;6.88;6.28;;;15.40;99.90;;;;;;5009776;28;20045;-56
2023/09/28 03:30:12;;;;;;;7.70;6.97;;;15.40;99.90;;;;;;5014126;28;20033;-56
2023/09/28 03:32:41;;;;;;;7.80;7.10;;;15.40;99.90;;;;;;5011733;28;20026;-52
2023/09/28 03:35:10;;;;;;;10.32;7.32;;;15.40;99.90;;;;;;5013130;28;20537;-54
2023/09/28 03:37:36;;;;;;;7.63;6.90;;;15.40;99.90;;;;;;5014093;28;20053;-56
2023/09/28 03:40:10;;;;;;;8.05;7.25;;;15.30;99.90;;;;;;5014231;28;20126;-54
2023/09/28 03:42:40;;;;;;;8.80;7.28;;;15.30;99.90;;;;;;5014601;28;20034;-51
2023/09/28 03:45:08;;;;;;;10.18;7.60;;;15.40;99.90;;;;;;5013638;28;20037;-55
2023/09/28 03:47:36;;;;;;;8.40;7.38;;;15.40;99.90;;;;;;5013792;28;20375;-56
2023/09/28 03:50:01;;;;;;;9.65;8.45;;;15.40;99.90;;;;;;5015977;28;20105;-58
2023/09/28 03:52:27;;;;;;;8.77;7.82;;;15.40;99.90;;;;;;5016771;28;20112;-57
2023/09/28 03:54:53;;;;;;;9.52;8.18;;;15.30;99.90;;;;;;5011216;28;20621;-55
2023/09/28 03:57:18;;;;;;;8.35;7.55;;;15.40;99.90;;;;;;5013310;28;20097;-55
2023/09/28 03:59:44;;;;;;;10.15;7.30;;;15.40;99.90;;;;;;5010328;28;20064;-57
2023/09/28 04:02:10;;;;;;;8.85;7.28;;;15.40;99.90;;;;;;5014006;28;20037;-54
2023/09/28 04:04:35;;;;;;;7.80;7.10;;;15.40;99.90;;;;;;5012064;28;20033;-53
2023/09/28 04:07:01;;;;;;;7.90;7.20;;;15.40;99.90;;;;;;5014773;28;20034;-55
2023/09/28 04:09:27;;;;;;;8.13;7.32;;;15.40;99.90;;;;;;5010179;28;20034;-51
2023/09/28 04:11:52;;;;;;;8.63;7.72;;;15.30;99.90;;;;;;5011909;28;20029;-55
2023/09/28 04:14:18;;;;;;;9.38;7.78;;;15.40;99.90;;;;;;5013588;28;20029;-54
2023/09/28 04:16:45;;;;;;;8.60;7.25;;;15.40;99.90;;;;;;5010789;28;20032;-57
2023/09/28 04:19:11;;;;;;;7.93;7.13;;;15.40;99.90;;;;;;5014466;28;20087;-51
2023/09/28 04:21:36;;;;;;;10.88;7.75;;;15.40;99.90;;;;;;5012347;28;20037;-54
2023/09/28 04:24:02;;;;;;;9.52;8.15;;;15.40;99.90;;;;;;5013554;28;20047;-53
2023/09/28 04:26:27;;;;;;;8.50;7.63;;;15.40;99.90;;;;;;5015166;28;20124;-54
2023/09/28 04:28:53;;;;;;;9.73;8.32;;;15.40;99.90;;;;;;5015366;28;20037;-56
2023/09/28 04:31:18;;;;;;;8.73;7.50;;;15.40;99.90;;;;;;5015098;28;20030;-50
2023/09/28 04:33:44;;;;;;;8.55;7.85;;;15.40;99.90;;;;;;5010233;28;20503;-57
2023/09/28 04:36:10;;;;;;;8.05;7.13;;;15.40;99.90;;;;;;5015158;28;20033;-57
2023/09/28 04:38:36;;;;;;;7.75;7.05;;;15.40;99.90;;;;;;5014737;28;20032;-57
2023/09/28 04:41:02;;;;;;;11.07;7.72;;;15.40;99.90;;;;;;5014776;28;20033;-54
2023/09/28 04:43:28;;;;;;;9.88;7.85;;;15.40;99.90;;;;;;5014016;28;20083;-51
2023/09/28 04:45:53;;;;;;;9.73;8.07;;;15.40;99.90;;;;;;5013685;28;20635;-53
2023/09/28 04:48:19;;;;;;;10.10;8.20;;;15.40;99.90;;;;;;5016500;28;20021;-58
2023/09/28 04:50:45;;;;;;;9.02;8.13;;;15.40;99.90;;;;;;5015486;28;20022;-52
2023/09/28 04:53:10;;;;;;;8.68;7.80;;;15.40;99.90;;;;;;5015820;28;20017;-55
2023/09/28 04:55:36;;;;;;;8.98;7.53;;;15.30;99.90;;;;;;5012857;28;20101;-53
2023/09/28 04:58:02;;;;;;;8.40;7.53;;;15.40;99.90;;;;;;5011818;28;20455;-52
2023/09/28 05:00:27;;;;;;;8.93;7.93;;;15.40;99.90;;;;;;5012070;28;20120;-54
2023/09/28 05:02:53;;;;;;;9.25;7.50;;;15.30;99.90;;;;;;5013627;28;20025;-54
2023/09/28 05:05:18;;;;;;;9.05;8.15;;;15.30;99.90;;;;;;5014067;28;20104;-55
2023/09/28 05:07:44;;;;;;;8.70;7.63;;;15.30;99.90;;;;;;5015124;28;20034;-52
2023/09/28 05:10:10;;;;;;;9.40;7.55;;;15.30;99.90;;;;;;5012959;28;20537;-58
2023/09/28 05:12:40;;;;;;;8.75;7.85;;;15.30;99.90;;;;;;5016896;28;20016;-55
2023/09/28 05:15:08;;;;;;;11.35;8.18;;;15.40;99.90;;;;;;5018104;28;20675;-55
2023/09/28 05:17:33;;;;;;;9.38;8.20;;;15.40;99.90;;;;;;5016167;28;20591;-53
2023/09/28 05:19:59;;;;;;;11.65;8.80;;;15.40;99.90;;;;;;5018159;28;20164;-56
2023/09/28 05:22:24;;;;;;;9.57;8.57;;;15.40;99.90;;;;;;5015310;28;20025;-54
2023/09/28 05:24:51;;;;;;;10.90;8.30;;;15.40;99.90;;;;;;5012208;28;20038;-54
2023/09/28 05:27:17;;;;;;;11.15;8.68;;;15.40;99.90;;;;;;5016797;28;20597;-51
2023/09/28 05:29:43;;;;;;;10.60;8.30;;;15.40;99.90;;;;;;5013764;28;20030;-56
2023/09/28 05:32:09;;;;;;;11.95;8.70;;;15.40;99.90;;;;;;5012430;28;20114;-58
2023/09/28 05:34:35;;;;;;;8.18;7.35;;;15.40;99.90;;;;;;5014322;28;20049;-53
2023/09/28 05:37:00;;;;;;;8.65;7.60;;;15.40;99.90;;;;;;5016872;28;20060;-56
2023/09/28 05:39:26;;;;;;;8.57;7.78;;;15.40;99.90;;;;;;5013124;28;20270;-53
2023/09/28 05:41:51;;;;;;;8.75;7.82;;;15.40;99.90;;;;;;5014751;28;20097;-56
2023/09/28 05:44:17;;;;;;;9.02;8.10;;;15.30;99.90;;;;;;5017908;28;20493;-55
2023/09/28 05:46:42;;;;;;;9.65;7.75;;;15.30;99.90;;;;;;5014082;28;20030;-56
2023/09/28 05:49:08;;;;;;;11.52;7.88;;;15.30;99.90;;;;;;5018047;28;20117;-56
2023/09/28 05:51:34;;;;;;;8.93;8.02;;;15.30;99.90;;;;;;5019772;28;20033;-57
2023/09/28 05:53:59;;;;;;;9.88;7.43;;;15.30;99.90;;;;;;5018465;28;20030;-55
2023/09/28 05:56:26;;;;;;;8.35;7.60;;;15.30;99.90;;;;;;5022182;28;20053;-54
2023/09/28 05:58:52;;;;;;;8.18;7.05;;;15.30;99.90;;;;;;5016062;28;20796;-55
2023/09/28 06:01:18;;;;;;;8.15;7.30;;;15.30;99.90;;;;;;5016676;28;20148;-57
2023/09/28 06:03:43;;;;;;;9.38;8.02;;;15.30;99.90;;;;;;5016969;28;20056;-57
2023/09/28 06:06:15;;;;;;;7.57;6.85;;;15.30;99.90;;;;;;5020744;28;20084;-53
2023/09/28 06:08:41;;;;;;;9.27;8.38;;;15.20;99.90;;;;;;5017489;28;20034;-57
2023/09/28 06:11:11;;;;;;;8.75;7.60;;;15.20;99.90;;;;;;5017906;28;20111;-57
2023/09/28 06:13:39;;;;;;;9.77;8.23;;;15.30;99.90;;;;;;5019265;28;20025;-58
2023/09/28 06:16:05;;;;;;;9.77;8.13;;;15.30;99.90;;;;;;5018922;28;20026;-57
2023/09/28 06:18:30;;;;;;;10.38;7.93;;;15.30;99.90;;;;;;5020219;28;20594;-57
2023/09/28 06:20:56;;;;;;;10.02;8.15;;;15.30;99.90;;;;;;5013800;28;20398;-58
2023/09/28 06:23:21;;;;;;;11.05;8.63;;;15.40;99.90;;;;;;5020088;28;20416;-54
2023/09/28 06:25:47;;;;;;;8.43;7.45;;;15.40;99.90;;;;;;5016299;28;20033;-57
2023/09/28 06:28:13;;;;;;;9.77;8.70;;;15.40;99.90;;;;;;5020219;28;20104;-56
2023/09/28 06:30:38;;;;;;;10.38;8.45;;;15.40;99.90;;;;;;5018093;28;20018;-57
2023/09/28 06:33:04;;;;;;;9.63;8.25;;;15.50;99.90;;;;;;5022115;28;20421;-56
2023/09/28 06:35:31;;;;;;;10.30;8.50;;;15.50;99.90;;;;;;5017625;28;20031;-58
2023/09/28 06:37:56;;;;;;;11.45;8.60;;;15.50;99.90;;;;;;5012472;28;20105;-58
2023/09/28 06:40:22;;;;;;;12.95;8.52;;;15.60;99.90;;;;;;5021575;28;20033;-54
2023/09/28 06:42:47;;;;;;;8.52;7.63;;;15.60;99.90;;;;;;5020639;28;20041;-55
2023/09/28 06:45:14;;;;;;;9.68;8.20;;;15.60;99.90;;;;;;5020330;28;20552;-58
2023/09/28 06:47:39;;;;;;;8.23;7.32;;;15.60;99.90;;;;;;5015625;28;20059;-59
2023/09/28 06:50:05;;;;;;;8.88;8.02;;;15.70;99.90;;;;;;5019854;28;20072;-55
2023/09/28 06:52:32;;;;;;;8.95;7.80;;;15.70;99.90;;;;;;5019986;28;20504;-58
2023/09/28 06:54:58;;;;;;;9.13;8.23;;;15.80;99.90;;;;;;5019376;28;20030;-53
2023/09/28 06:57:23;;;;;;;9.63;8.02;;;15.80;99.90;;;;;;5020379;28;20034;-53
2023/09/28 06:59:50;;;;;;;11.38;8.43;;;15.90;99.90;;;;;;5019661;28;20104;-54
2023/09/28 07:02:15;;;;;;;8.73;7.85;;;15.90;99.90;;;;;;5019508;28;20565;-57
2023/09/28 07:04:42;;;;;;;8.90;7.93;;;16.00;99.90;;;;;;5012136;28;20128;-57
2023/09/28 07:07:09;;;;;;;8.98;6.85;;;16.00;99.90;;;;;;5013620;28;20117;-55
2023/09/28 07:09:39;;;;;;;9.27;7.30;;;16.10;99.90;;;;;;5013805;28;20592;-54
2023/09/28 07:12:04;;;;;;;7.93;7.10;;;16.20;99.90;;;;;;5018761;28;20022;-52
2023/09/28 07:14:30;;;;;;;8.55;7.22;;;16.20;99.90;;;;;;5023097;28;20024;-52
2023/09/28 07:16:55;;;;;;;8.23;7.30;;;16.30;99.90;;;;;;5018856;28;20328;-56
2023/09/28 07:19:21;;;;;;;9.32;7.70;;;16.40;99.90;;;;;;5018546;28;20028;-55
2023/09/28 07:21:47;;;;;;;10.90;7.28;;;16.40;99.90;;;;;;5015137;28;20048;-53
2023/09/28 07:24:12;;;;;;;8.35;7.53;;;16.50;99.90;;;;;;5018167;28;20021;-54
2023/09/28 07:26:38;;;;;;;10.45;7.25;;;16.60;99.90;;;;;;5014059;28;20128;-54
2023/09/28 07:29:04;;;;;;;8.02;6.82;;;16.60;99.90;;;;;;5015200;28;20029;-57
2023/09/28 07:31:29;;;;;;;7.65;6.40;;;16.70;99.90;;;;;;5013602;28;20029;-57
2023/09/28 07:33:56;;;;;;;8.52;6.72;;;16.70;99.90;;;;;;5020068;28;20544;-52
2023/09/28 07:36:21;;;;;;;8.32;6.15;;;16.80;99.90;;;;;;5018786;28;20014;-57
2023/09/28 07:38:47;;;;;;;8.95;6.55;;;16.80;99.90;;;;;;5014954;28;20040;-56
2023/09/28 07:41:12;;;;;;;8.43;5.63;;;16.80;99.90;;;;;;5019755;28;20024;-55
2023/09/28 07:43:38;;;;;;;8.18;6.47;;;16.80;99.90;;;;;;5019556;28;20056;-60
2023/09/28 07:46:04;;;;;;;7.65;6.85;;;16.80;99.90;;;;;;5018244;28;20025;-58
2023/09/28 07:48:30;;;;;;;8.88;5.55;;;16.90;99.90;;;;;;5019583;28;20017;-53
2023/09/28 07:50:55;;;;;;;6.75;6.05;;;16.90;99.90;;;;;;5022010;28;20048;-53
2023/09/28 07:53:21;;;;;;;5.68;5.18;;;16.90;99.90;;;;;;5019529;28;20025;-52
2023/09/28 07:55:47;;;;;;;5.47;4.57;;;17.00;99.90;;;;;;5019900;28;20025;-53
2023/09/28 07:58:12;;;;;;;7.85;6.18;;;17.10;99.90;;;;;;5018687;28;20090;-56
2023/09/28 08:00:38;;;;;;;8.02;5.90;;;17.20;99.90;;;;;;5018301;28;20018;-55
2023/09/28 08:03:04;;;;;;;5.63;4.80;;;17.30;99.90;;;;;;5017098;28;20436;-57
2023/09/28 08:05:31;;;;;;;8.00;5.25;;;17.50;99.90;;;;;;5017194;28;20021;-62
2023/09/28 08:07:57;;;;;;;6.20;5.60;;;17.60;99.90;;;;;;5017810;28;20053;-53
2023/09/28 08:10:22;;;;;;;5.80;5.13;;;17.80;99.90;;;;;;5013289;28;20064;-52
2023/09/28 08:12:48;;;;;;;8.27;5.25;;;17.90;99.90;;;;;;5010598;28;20030;-54
2023/09/28 08:15:15;;;;;;;6.97;5.05;;;18.00;99.90;;;;;;5012357;28;20032;-51
2023/09/28 08:17:44;;;;;;;5.60;5.10;;;18.20;99.90;;;;;;5008413;28;20012;-53
2023/09/28 08:20:10;;;;;;;5.70;4.53;;;18.30;99.90;;;;;;5018162;28;20060;-58
2023/09/28 08:22:36;;;;;;;7.85;5.93;;;18.40;99.90;;;;;;5021394;28;20038;-53
2023/09/28 08:25:05;;;;;;;6.55;5.07;;;18.50;99.90;;;;;;5019590;28;20058;-58
2023/09/28 08:27:31;;;;;;;6.65;6.05;;;18.60;99.90;;;;;;5012325;28;20022;-55
2023/09/28 08:29:57;;;;;;;8.57;5.50;;;18.80;99.90;;;;;;5015747;28;20037;-54
2023/09/28 08:32:23;;;;;;;7.25;5.28;;;18.80;99.90;;;;;;5014030;28;20018;-55
2023/09/28 08:34:49;;;;;;;6.63;4.75;;;18.80;99.90;;;;;;5016436;28;20028;-55
2023/09/28 08:37:14;;;;;;;8.98;5.72;;;18.90;99.90;;;;;;5014522;28;20409;-52
2023/09/28 08:39:40;;;;;;;7.72;5.57;;;19.00;99.90;;;;;;5012181;28;20014;-56
2023/09/28 08:42:11;;;;;;;6.25;4.72;;;19.10;99.90;;;;;;5014468;28;20548;-51
2023/09/28 08:44:38;;;;;;;7.18;5.32;;;19.10;99.90;;;;;;5011991;28;20018;-56
2023/09/28 08:47:12;;;;;;;9.52;4.78;;;19.20;99.90;;;;;;5021607;28;20457;-57
2023/09/28 08:49:38;;;;;;;7.68;4.70;;;19.30;99.90;;;;;;5018119;28;20025;-56
2023/09/28 08:52:04;;;;;;;5.53;4.75;;;19.30;99.90;;;;;;5020902;28;20397;-55
2023/09/28 08:54:30;;;;;;;5.65;4.50;;;19.30;99.90;;;;;;5016345;28;20021;-57
2023/09/28 08:56:58;;;;;;;5.50;4.20;;;19.40;99.90;;;;;;5008954;28;20030;-52
2023/09/28 08:59:28;;;;;;;5.35;4.32;;;19.50;99.90;;;;;;5018432;28;20108;-59
2023/09/28 09:01:55;;;;;;;5.78;4.10;;;19.60;99.90;;;;;;5015334;28;20053;-57
2023/09/28 09:04:20;;;;;;;5.55;3.97;;;19.70;99.90;;;;;;5013095;28;20025;-60
2023/09/28 09:06:48;;;;;;;5.40;3.97;;;19.70;99.90;;;;;;5019258;28;20079;-52
2023/09/28 09:09:20;;;;;;;6.45;4.03;;;19.80;99.90;;;;;;5009930;28;20122;-56
2023/09/28 09:11:54;;;;;;;9.25;4.57;;;19.80;99.90;;;;;;5015470;28;20021;-56
2023/09/28 09:14:25;;;;;;;5.57;4.43;;;19.90;99.90;;;;;;5015354;28;20084;-54
2023/09/28 09:16:50;;;;;;;4.32;3.90;;;19.90;99.90;;;;;;5018405;28;20013;-53
2023/09/28 09:19:16;;;;;;;6.80;4.32;;;20.00;99.90;;;;;;5013999;28;20040;-55
2023/09/28 09:21:43;;;;;;;5.13;3.63;;;20.00;99.90;;;;;;5013994;28;20460;-54
2023/09/28 09:24:12;;;;;;;6.53;4.13;;;20.00;99.90;;;;;;5012111;28;20091;-54
2023/09/28 09:26:40;;;;;;;6.88;4.28;;;20.10;99.90;;;;;;5016802;28;20034;-52
2023/09/28 09:29:05;;;;;;;5.75;3.83;;;20.10;99.90;;;;;;5012946;28;20056;-53
2023/09/28 09:31:33;;;;;;;6.45;4.00;;;20.10;99.90;;;;;;5008340;28;20752;-57
2023/09/28 09:34:05;;;;;;;3.85;3.50;;;20.20;99.90;;;;;;5010838;28;20026;-53
2023/09/28 09:36:30;;;;;;;6.45;3.78;;;20.20;99.90;;;;;;5018100;28;20025;-53
2023/09/28 09:38:58;;;;;;;6.13;4.03;;;20.20;99.90;;;;;;5011538;28;20041;-55
2023/09/28 09:41:24;;;;;;;3.83;3.53;;;20.20;99.90;;;;;;5017017;28;20059;-57
2023/09/28 09:43:51;;;;;;;6.63;4.55;;;20.20;99.90;;;;;;5016068;28;20038;-53
2023/09/28 09:46:17;;;;;;;5.25;3.72;;;20.30;99.90;;;;;;5016641;28;20018;-55
2023/09/28 09:48:44;;;;;;;3.97;3.45;;;20.30;99.90;;;;;;5019053;28;20374;-57
2023/09/28 09:51:15;;;;;;;5.88;3.83;;;20.30;99.90;;;;;;5014803;28;20026;-54
2023/09/28 09:53:42;;;;;;;5.35;3.60;;;20.30;99.90;;;;;;5017884;28;20049;-55
2023/09/28 09:56:10;;;;;;;5.05;4.13;;;20.40;99.90;;;;;;5014948;28;20033;-57
2023/09/28 09:58:56;;;;;;;3.83;3.40;;;20.30;99.90;;;;;;5018341;28;20361;-58
2023/09/28 10:01:22;;;;;;;3.55;3.08;;;20.40;99.90;;;;;;5018314;28;20131;-58
2023/09/28 10:03:51;;;;;;;5.15;3.17;;;20.40;99.90;;;;;;5014653;28;20041;-56
2023/09/28 10:06:19;;;;;;;3.88;3.35;;;20.40;99.90;;;;;;5018140;28;20192;-59
2023/09/28 10:08:46;;;;;;;4.05;3.45;;;20.40;99.90;;;;;;5017345;28;20038;-56
2023/09/28 10:11:12;;;;;;;3.25;2.95;;;20.50;99.90;;;;;;5014122;28;20030;-53
2023/09/28 10:13:39;;;;;;;5.70;3.00;;;20.50;99.90;;;;;;5017166;28;20018;-54
2023/09/28 10:16:06;;;;;;;5.43;3.08;;;20.60;99.90;;;;;;5015410;28;20032;-53
2023/09/28 10:18:35;;;;;;;2.63;2.33;;;20.60;99.90;;;;;;5015954;28;20052;-58
2023/09/28 10:21:01;;;;;;;3.47;2.65;;;20.60;99.90;;;;;;5015941;28;20022;-58
2023/09/28 10:23:28;;;;;;;6.95;2.80;;;20.60;99.90;;;;;;5021101;28;20502;-58
2023/09/28 10:26:07;;;;;;;3.58;2.72;;;20.70;99.90;;;;;;5012275;28;20053;-59
2023/09/28 10:28:33;;;;;;;3.22;2.38;;;20.70;99.90;;;;;;5017948;28;20025;-60
2023/09/28 10:31:04;;;;;;;7.05;3.35;;;20.70;99.90;;;;;;5012132;28;20041;-52
2023/09/28 10:33:32;;;;;;;3.65;3.13;;;20.70;99.90;;;;;;5022811;28;20401;-58
2023/09/28 10:36:14;;;;;;;3.13;2.72;;;20.70;99.90;;;;;;5017609;28;20088;-56
2023/09/28 10:38:41;;;;;;;5.47;3.05;;;20.70;99.90;;;;;;5013239;28;20060;-56
2023/09/28 10:41:07;;;;;;;4.20;3.25;;;20.80;99.90;;;;;;5017100;28;20025;-58
2023/09/28 10:43:34;;;;;;;4.50;2.63;;;20.80;99.90;;;;;;5026705;28;20029;-56
2023/09/28 10:46:07;;;;;;;4.20;2.95;;;20.90;99.90;;;;;;5023327;28;20021;-55
2023/09/28 10:48:44;;;;;;;4.97;2.35;;;20.80;99.90;;;;;;5015176;28;20025;-54
2023/09/28 10:51:16;;;;;;;6.38;2.42;;;20.90;99.90;;;;;;5021826;28;20052;-57
2023/09/28 10:53:44;;;;;;;5.55;2.72;;;21.00;99.90;;;;;;5018443;28;20024;-56
2023/09/28 10:56:11;;;;;;;5.07;3.17;;;21.00;99.90;;;;;;5023381;28;20021;-57
2023/09/28 10:58:38;;;;;;;5.35;2.65;;;21.00;99.90;;;;;;5021364;28;20026;-53
2023/09/28 11:01:06;;;;;;;4.47;2.63;;;21.00;99.90;;;;;;5022373;28;20057;-57
2023/09/28 11:03:35;;;;;;;3.17;2.55;;;21.00;99.90;;;;;;5018544;28;20072;-56
2023/09/28 11:06:04;;;;;;;3.75;2.65;;;21.00;99.90;;;;;;5022796;28;20029;-60
2023/09/28 11:08:31;;;;;;;4.65;2.50;;;21.10;99.90;;;;;;5020599;28;20025;-58
2023/09/28 11:10:58;;;;;;;3.17;2.88;;;21.10;99.90;;;;;;5017550;28;20551;-58
2023/09/28 11:13:25;;;;;;;3.72;2.30;;;21.20;99.90;;;;;;5016580;28;20038;-58
2023/09/28 11:15:53;;;;;;;5.10;2.90;;;21.20;99.90;;;;;;5022321;28;20017;-57
2023/09/28 11:18:20;;;;;;;2.97;2.38;;;21.20;99.90;;;;;;5020374;28;20099;-56
2023/09/28 11:20:45;;;;;;;4.78;3.10;;;21.20;99.90;;;;;;5014511;28;20084;-53
2023/09/28 11:23:12;;;;;;;4.88;3.15;;;21.20;99.90;;;;;;5021873;28;20440;-56
2023/09/28 11:25:42;;;;;;;4.80;2.83;;;21.30;99.90;;;;;;5012627;28;20409;-57
2023/09/28 11:28:09;;;;;;;4.13;2.78;;;21.30;99.90;;;;;;5023568;28;20051;-55
2023/09/28 11:30:36;;;;;;;6.60;3.05;;;21.30;99.90;;;;;;5009817;28;20033;-58
2023/09/28 11:33:07;;;;;;;4.10;2.38;;;21.30;99.90;;;;;;5022571;28;20021;-58
2023/09/28 11:35:34;;;;;;;3.22;2.50;;;21.40;99.90;;;;;;5007487;28;20457;-56
2023/09/28 11:38:09;;;;;;;3.50;2.90;;;21.40;99.90;;;;;;5017347;28;20026;-53
2023/09/28 11:40:38;;;;;;;;;;;21.40;99.90;;;;;;5008090;28;20097;-52
2023/09/28 11:43:05;;;;;;;5.85;3.25;;;21.50;99.90;;;;;;5018027;28;19968;-59
2023/09/28 11:45:33;;;;;;;7.28;3.53;;;21.50;99.90;;;;;;5021171;28;20024;-52
2023/09/28 11:48:05;;;;;;;3.45;3.00;;;21.50;99.90;;;;;;5014908;28;20033;-53
2023/09/28 11:50:31;;;;;;;4.80;2.92;;;21.60;99.90;;;;;;5017751;28;20520;-55
2023/09/28 11:52:57;;;;;;;4.35;2.83;;;21.50;99.90;;;;;;5015478;28;20033;-52
2023/09/28 11:55:23;;;;;;;6.57;3.47;;;21.50;99.90;;;;;;5014874;28;20025;-54
2023/09/28 11:57:48;;;;;;;2.92;2.70;;;21.50;99.90;;;;;;5013116;28;20014;-59
2023/09/28 12:00:21;;;;;;;4.47;3.25;;;21.50;99.90;;;;;;5011194;28;20026;-54
2023/09/28 12:02:47;;;;;;;5.10;3.45;;;21.50;99.90;;;;;;5035722;22;20124;-55
2023/09/28 12:05:13;;;;;;;4.53;3.22;;;21.50;99.90;;;;;;5025986;28;20064;-56
2023/09/28 12:07:40;;;;;;;5.38;3.28;;;21.50;99.90;;;;;;5025946;28;20029;-55
2023/09/28 12:10:08;;;;;;;5.90;2.78;;;21.50;99.90;;;;;;5023592;28;20021;-54
2023/09/28 12:12:34;;;;;;;5.72;3.08;;;21.60;99.90;;;;;;5022454;28;20478;-52
2023/09/28 12:15:00;;;;;;;6.03;3.67;;;21.70;99.90;;;;;;5025470;28;20033;-54
2023/09/28 12:17:25;;;;;;;4.50;3.40;;;21.70;99.90;;;;;;5026181;28;20049;-54
2023/09/28 12:19:51;;;;;;;3.72;2.60;;;21.70;99.90;;;;;;5024494;28;20017;-58
2023/09/28 12:22:16;;;;;;;7.03;3.22;;;21.80;99.90;;;;;;5024857;28;20025;-56
2023/09/28 12:24:42;;;;;;;7.75;2.95;;;21.70;99.90;;;;;;5025347;28;20036;-56
2023/09/28 12:27:09;;;;;;;5.82;2.35;;;21.70;99.90;;;;;;5026373;28;20475;-54
2023/09/28 12:29:35;;;;;;;4.13;2.40;;;21.60;99.90;;;;;;5027510;28;20018;-59
2023/09/28 12:32:00;;;;;;;5.75;2.95;;;21.60;99.90;;;;;;5025597;28;20028;-56
2023/09/28 12:34:26;;;;;;;3.33;2.47;;;21.70;99.90;;;;;;5026300;28;20017;-56
2023/09/28 12:36:57;;;;;;;8.85;2.85;;;21.80;99.90;;;;;;5024725;28;20017;-56
2023/09/28 12:39:23;;;;;;;6.70;2.60;;;21.80;99.90;;;;;;5024064;28;20485;-56
2023/09/28 12:41:49;;;;;;;3.97;2.80;;;21.90;99.90;;;;;;5024624;28;20282;-56
2023/09/28 12:44:14;;;;;;;8.73;3.35;;;22.00;99.90;;;;;;5024624;28;20025;-57